Hovedside
METAR-TAF:

METAR-TAF

Lufthavner :

Incheon internasjonale lufthavn

Seoul-Incheon, Sør-Korea

breddegrad: 37-28N, lengdegrad: 126-27E, høyde over havet: 7 m

Gjeldene værobservasjon

Denne rapporten ble laget for 19 minutter siden, klokken 21:30 UTC
Vind 7 kt fra Nordøst
Temperatur 28°C
Luftfuktighet 74%
Trykk 1008 hPa
Sikt 10 km eller mer
ingen skyer under 1500 m og ingen bygeskyer

METAR: RKSI 142130Z 05007KT CAVOK 28/23 Q1008 NOSIG

Tid: 06:49 (21:49 UTC)

Varsel

Denne rapporten ble laget for 4 timer og 49 minutter siden, klokken 17:00 UTC
Varsel gyldig fra 14. klokken 18 UTC til 15. klokken 24 UTC
Vind 7 kt fra Øst-nordøst
Sikt: 7000 m
Spredte skyer i en høyde av 3000 ft
Blir
fra 15. klokken 03 UTC til 15. klokken 04 UTC
Vind 8 kt fra Nord-nordvest
Blir
fra 15. klokken 10 UTC til 15. klokken 11 UTC
Vind 7 kt fra Øst

TAF: RKSI 141700Z 1418/1524 07007KT 7000 SCT030 TN27/1421Z TX34/1505Z TN26/1521Z BECMG 1503/1504 33008KT BECMG 1510/1511 08007KT

Værobservasjoner og værvarsel for over 4000 flyplasser (METAR- og TAF-rapporter).

Tilgjengelige stasjoner er representert av de røde og gule prikkene på kartet.

Hold musepekeren over prikken for å se navnet på stasjonen.

Klikk så for å se værobservasjoner og -varsler.

For å forandre kartet kan du klikke på den grønne knappen med svart kryss for å zoome inn, på den grønne knappen med strek for å zoome ut, eller på de grønne pilene for å se tilstøtende kart.


METAR-TAF: